createdAt,value
2022-09-21T00:00:55.014Z,9.52
2022-09-21T00:03:21.564Z,9.49
2022-09-21T00:05:48.163Z,9.43
2022-09-21T00:08:14.703Z,9.39
2022-09-21T00:10:41.303Z,9.35
2022-09-21T00:13:07.977Z,9.30
2022-09-21T00:15:34.987Z,9.25
2022-09-21T00:18:01.603Z,9.21
2022-09-21T00:20:28.593Z,9.19
2022-09-21T00:22:55.161Z,9.16
2022-09-21T00:25:21.746Z,9.14
2022-09-21T00:27:48.231Z,9.12
2022-09-21T00:30:14.794Z,9.12
2022-09-21T00:32:41.570Z,9.12
2022-09-21T00:35:08.594Z,9.12
2022-09-21T00:37:36.059Z,9.13
2022-09-21T00:40:03.890Z,9.13
2022-09-21T00:42:33.622Z,9.14
2022-09-21T00:45:00.793Z,9.17
2022-09-21T00:47:45.483Z,9.17
2022-09-21T00:50:17.033Z,9.19
2022-09-21T00:52:47.722Z,9.22
2022-09-21T00:55:24.552Z,9.24
2022-09-21T00:57:56.795Z,9.27
2022-09-21T01:00:23.541Z,9.31
2022-09-21T01:02:50.222Z,9.34
2022-09-21T01:05:16.839Z,9.38
2022-09-21T01:07:47.047Z,9.40
2022-09-21T01:10:17.440Z,9.44
2022-09-21T01:12:55.584Z,9.47
2022-09-21T01:15:27.755Z,9.49
2022-09-21T01:18:08.596Z,9.53
2022-09-21T01:20:43.564Z,9.57
2022-09-21T01:23:39.911Z,9.59
2022-09-21T01:26:46.182Z,9.61
2022-09-21T01:29:36.846Z,9.64
2022-09-21T01:32:12.975Z,9.67
2022-09-21T01:34:46.651Z,9.71
2022-09-21T01:37:18.643Z,9.74
2022-09-21T01:39:50.576Z,9.77
2022-09-21T01:42:19.490Z,9.82
2022-09-21T01:44:47.377Z,9.84
2022-09-21T01:47:16.485Z,9.86
2022-09-21T01:49:55.015Z,9.88
2022-09-21T01:52:33.529Z,9.89
2022-09-21T01:55:10.344Z,9.89
2022-09-21T01:57:42.986Z,9.91
2022-09-21T02:00:10.080Z,9.91
2022-09-21T02:02:52.948Z,9.89
2022-09-21T02:05:22.871Z,9.89
2022-09-21T02:07:51.276Z,9.86
2022-09-21T02:10:23.474Z,9.81
2022-09-21T02:12:55.554Z,9.77
2022-09-21T02:15:28.631Z,9.71
2022-09-21T02:18:06.851Z,9.67
2022-09-21T02:20:41.101Z,9.60
2022-09-21T02:23:29.394Z,9.54
2022-09-21T02:26:33.740Z,9.48
2022-09-21T02:29:14.092Z,9.40
2022-09-21T02:31:52.075Z,9.33
2022-09-21T02:34:27.982Z,9.27
2022-09-21T02:37:02.474Z,9.22
2022-09-21T02:39:38.606Z,9.16
2022-09-21T02:42:17.225Z,9.12
2022-09-21T02:44:50.508Z,9.05
2022-09-21T02:47:22.789Z,8.99
2022-09-21T02:49:53.179Z,8.95
2022-09-21T02:52:21.625Z,8.89
2022-09-21T02:54:51.897Z,8.85
2022-09-21T02:57:22.001Z,8.80
2022-09-21T02:59:50.297Z,8.76
2022-09-21T03:02:16.936Z,8.64
2022-09-21T03:04:46.866Z,8.67
2022-09-21T03:07:15.916Z,8.66
2022-09-21T03:09:42.576Z,8.64
2022-09-21T03:12:09.094Z,8.64
2022-09-21T03:14:35.647Z,8.65
2022-09-21T03:17:02.205Z,8.67
2022-09-21T03:19:28.730Z,8.70
2022-09-21T03:21:55.277Z,8.75
2022-09-21T03:24:21.819Z,8.78
2022-09-21T03:26:48.390Z,8.81
2022-09-21T03:29:14.883Z,8.85
2022-09-21T03:31:41.391Z,8.90
2022-09-21T03:34:08.012Z,8.93
2022-09-21T03:36:34.529Z,8.97
2022-09-21T03:39:01.003Z,9.01
2022-09-21T03:41:27.784Z,9.04
2022-09-21T03:43:54.349Z,9.04
2022-09-21T03:46:20.988Z,9.06
2022-09-21T03:48:48.089Z,9.06
2022-09-21T03:51:14.560Z,9.04
2022-09-21T03:53:41.060Z,9.03
2022-09-21T03:56:07.657Z,9.00
2022-09-21T03:58:34.148Z,8.96
2022-09-21T04:01:04.180Z,8.92
2022-09-21T04:03:30.813Z,8.87
2022-09-21T04:05:57.391Z,8.82
2022-09-21T04:08:23.943Z,8.76
2022-09-21T04:10:50.601Z,8.71
2022-09-21T04:13:17.150Z,8.65
2022-09-21T04:15:43.696Z,8.58
2022-09-21T04:18:10.356Z,8.53
2022-09-21T04:20:36.905Z,8.47
2022-09-21T04:23:03.394Z,8.43
2022-09-21T04:25:29.921Z,8.36
2022-09-21T04:27:56.447Z,8.31
2022-09-21T04:30:22.941Z,8.26
2022-09-21T04:32:49.458Z,8.22
2022-09-21T04:35:16.067Z,8.16
2022-09-21T04:37:42.656Z,8.11
2022-09-21T04:40:09.457Z,8.07
2022-09-21T04:42:36.067Z,8.02
2022-09-21T04:45:02.652Z,7.98
2022-09-21T04:47:30.919Z,7.94
2022-09-21T04:49:57.572Z,7.91
2022-09-21T04:52:24.162Z,7.88
2022-09-21T04:54:50.726Z,7.85
2022-09-21T04:57:17.234Z,7.83
2022-09-21T04:59:43.765Z,7.80
2022-09-21T05:02:10.306Z,7.77
2022-09-21T05:04:36.964Z,7.73
2022-09-21T05:07:03.904Z,7.72
2022-09-21T05:09:30.457Z,7.69
2022-09-21T05:11:56.891Z,7.68
2022-09-21T05:14:23.486Z,7.67
2022-09-21T05:16:50.017Z,7.69
2022-09-21T05:19:17.684Z,7.69
2022-09-21T05:21:44.274Z,7.68
2022-09-21T05:24:10.738Z,7.68
2022-09-21T05:26:37.770Z,7.68
2022-09-21T05:29:04.770Z,7.66
2022-09-21T05:31:41.348Z,7.64
2022-09-21T05:34:33.009Z,7.62
2022-09-21T05:37:08.038Z,7.62
2022-09-21T05:39:34.809Z,7.63
2022-09-21T05:42:01.880Z,7.63
2022-09-21T05:44:28.646Z,7.65
2022-09-21T05:47:11.846Z,7.68
2022-09-21T05:49:44.595Z,7.71
2022-09-21T05:52:13.802Z,7.74
2022-09-21T05:54:56.847Z,7.77
2022-09-21T05:58:08.174Z,7.80
2022-09-21T06:01:23.397Z,7.86
2022-09-21T06:03:50.281Z,7.90
2022-09-21T06:06:19.045Z,7.93
2022-09-21T06:08:45.665Z,7.98
2022-09-21T06:11:13.046Z,8.01
2022-09-21T06:13:39.595Z,8.05
2022-09-21T06:16:06.628Z,8.10
2022-09-21T06:18:37.713Z,8.14
2022-09-21T06:21:04.419Z,8.19
2022-09-21T06:23:31.032Z,8.23
2022-09-21T06:25:58.733Z,8.29
2022-09-21T06:28:25.554Z,8.34
2022-09-21T06:30:53.529Z,8.39
2022-09-21T06:33:21.027Z,8.44
2022-09-21T06:35:59.676Z,8.49
2022-09-21T06:38:27.860Z,8.57
2022-09-21T06:40:54.811Z,8.64
2022-09-21T06:43:21.867Z,8.72
2022-09-21T06:46:04.161Z,8.81
2022-09-21T06:48:33.235Z,8.92
2022-09-21T06:51:04.278Z,9.01
2022-09-21T06:53:32.491Z,9.11
2022-09-21T06:56:06.350Z,9.14
2022-09-21T06:58:33.997Z,9.30
2022-09-21T07:01:10.893Z,9.42
2022-09-21T07:03:39.404Z,9.52
2022-09-21T07:06:07.435Z,9.62
2022-09-21T07:11:21.183Z,9.85
2022-09-21T07:13:47.639Z,9.96
2022-09-21T07:16:14.218Z,10.07
2022-09-21T07:18:44.391Z,10.17
2022-09-21T07:21:11.766Z,10.28
2022-09-21T07:23:38.773Z,10.36
2022-09-21T07:26:11.051Z,10.47
2022-09-21T07:28:38.103Z,10.55
2022-09-21T07:31:16.253Z,10.62
2022-09-21T07:33:44.616Z,10.72
2022-09-21T07:36:11.197Z,10.71
2022-09-21T07:38:38.331Z,10.84
2022-09-21T07:41:05.542Z,10.93
2022-09-21T07:43:32.114Z,11.02
2022-09-21T07:45:58.688Z,11.09
2022-09-21T07:48:25.347Z,11.18
2022-09-21T07:50:51.808Z,11.28
2022-09-21T07:53:18.320Z,11.36
2022-09-21T07:55:44.922Z,11.42
2022-09-21T07:58:11.660Z,11.52
2022-09-21T08:00:38.434Z,11.61
2022-09-21T08:03:05.763Z,11.67
2022-09-21T08:05:33.076Z,11.72
2022-09-21T08:07:59.624Z,11.79
2022-09-21T08:10:26.461Z,11.88
2022-09-21T08:12:53.049Z,11.93
2022-09-21T08:15:37.342Z,11.97
2022-09-21T08:18:06.084Z,12.02
2022-09-21T08:20:32.688Z,12.04
2022-09-21T08:22:59.152Z,12.07
2022-09-21T08:25:25.767Z,12.12
2022-09-21T08:27:52.372Z,12.17
2022-09-21T08:30:18.895Z,12.23
2022-09-21T08:32:51.542Z,12.31
2022-09-21T08:35:18.555Z,12.40
2022-09-21T08:37:45.062Z,12.50
2022-09-21T08:40:12.355Z,12.63
2022-09-21T08:42:50.605Z,12.74
2022-09-21T08:45:20.305Z,12.88
2022-09-21T08:47:53.416Z,13.00
2022-09-21T08:50:26.568Z,13.14
2022-09-21T08:53:00.584Z,13.37
2022-09-21T08:55:27.233Z,13.57
2022-09-21T08:57:53.831Z,13.67
2022-09-21T09:00:20.679Z,13.77
2022-09-21T09:02:59.516Z,13.90
2022-09-21T09:05:48.359Z,14.00
2022-09-21T09:08:30.451Z,14.08
2022-09-21T09:11:34.351Z,14.29
2022-09-21T09:14:13.083Z,14.43
2022-09-21T09:16:55.637Z,14.53
2022-09-21T09:19:37.184Z,14.71
2022-09-21T09:22:07.386Z,14.87
2022-09-21T09:24:48.953Z,14.96
2022-09-21T09:27:32.572Z,15.03
2022-09-21T09:30:25.237Z,15.18
2022-09-21T09:33:06.392Z,15.27
2022-09-21T09:35:50.212Z,15.28
2022-09-21T09:38:40.251Z,15.27
2022-09-21T09:41:28.823Z,15.31
2022-09-21T09:43:58.310Z,15.41
2022-09-21T09:46:59.866Z,15.33
2022-09-21T09:49:44.741Z,15.31
2022-09-21T09:52:13.460Z,15.38
2022-09-21T09:54:40.240Z,15.44
2022-09-21T09:57:07.947Z,15.38
2022-09-21T09:59:54.212Z,15.35
2022-09-21T10:02:23.458Z,15.24
2022-09-21T10:04:57.051Z,15.17
2022-09-21T10:07:37.864Z,15.17
2022-09-21T10:10:35.894Z,15.19
2022-09-21T10:13:26.258Z,15.21
2022-09-21T10:15:56.800Z,15.21
2022-09-21T10:18:28.023Z,15.27
2022-09-21T10:21:02.519Z,15.28
2022-09-21T10:23:31.082Z,15.33
2022-09-21T10:26:01.651Z,15.30
2022-09-21T10:28:28.976Z,15.30
2022-09-21T10:31:17.176Z,15.35
2022-09-21T10:34:04.596Z,15.41
2022-09-21T10:36:36.453Z,15.48
2022-09-21T10:39:17.477Z,15.57
2022-09-21T10:41:48.880Z,15.68
2022-09-21T10:44:17.975Z,15.82
2022-09-21T10:46:45.890Z,15.96
2022-09-21T10:49:19.760Z,16.03
2022-09-21T10:51:49.376Z,16.20
2022-09-21T10:54:22.390Z,16.35
2022-09-21T10:57:00.427Z,16.41
2022-09-21T10:59:32.768Z,16.50
2022-09-21T11:02:01.059Z,16.57
2022-09-21T11:04:45.151Z,16.64
2022-09-21T11:07:22.416Z,16.73
2022-09-21T11:10:12.077Z,16.76
2022-09-21T11:13:03.894Z,16.76
2022-09-21T11:15:43.243Z,16.75
2022-09-21T11:18:22.067Z,16.83
2022-09-21T11:21:06.995Z,16.93
2022-09-21T11:23:55.417Z,17.03
2022-09-21T11:26:29.865Z,17.14
2022-09-21T11:29:05.502Z,17.18
2022-09-21T11:31:37.808Z,17.22
2022-09-21T11:34:24.512Z,17.20
2022-09-21T11:37:03.972Z,17.15
2022-09-21T11:39:36.336Z,17.15
2022-09-21T11:42:20.935Z,17.13
2022-09-21T11:44:54.537Z,17.22
2022-09-21T11:47:49.149Z,17.31
2022-09-21T11:50:45.283Z,17.49
2022-09-21T11:53:47.345Z,17.62
2022-09-21T11:56:32.120Z,17.69
2022-09-21T11:59:12.889Z,17.74
2022-09-21T12:01:56.921Z,17.84
2022-09-21T12:04:42.764Z,17.92
2022-09-21T12:07:27.624Z,18.03
2022-09-21T12:10:08.833Z,18.15
2022-09-21T12:12:49.507Z,18.21
2022-09-21T12:15:27.552Z,18.28
2022-09-21T12:18:04.080Z,18.37
2022-09-21T12:20:50.407Z,18.43
2022-09-21T12:23:51.078Z,18.53
2022-09-21T12:26:25.198Z,18.63
2022-09-21T12:29:02.824Z,18.66
2022-09-21T12:31:35.566Z,18.66
2022-09-21T12:34:13.733Z,18.63
2022-09-21T12:36:59.962Z,18.64
2022-09-21T12:39:37.936Z,18.67
2022-09-21T12:42:22.195Z,18.58
2022-09-21T12:45:06.814Z,18.72
2022-09-21T12:48:24.273Z,18.63
2022-09-21T12:51:00.382Z,18.68
2022-09-21T12:53:31.620Z,18.63
2022-09-21T12:56:13.037Z,18.60
2022-09-21T12:58:45.602Z,18.49
2022-09-21T13:01:25.205Z,18.35
2022-09-21T13:04:11.463Z,18.24
2022-09-21T13:09:44.023Z,18.10
2022-09-21T13:12:13.271Z,18.06
2022-09-21T13:14:47.147Z,17.99
2022-09-21T13:17:23.784Z,18.06
2022-09-21T13:20:01.656Z,18.09
2022-09-21T13:22:32.645Z,18.12
2022-09-21T13:25:18.153Z,18.19
2022-09-21T13:27:58.556Z,18.32
2022-09-21T13:30:29.701Z,18.43
2022-09-21T13:32:56.296Z,18.46
2022-09-21T13:35:47.612Z,18.44
2022-09-21T13:38:29.032Z,18.44
2022-09-21T13:41:04.682Z,18.41
2022-09-21T13:43:59.922Z,18.38
2022-09-21T13:46:34.860Z,18.37
2022-09-21T13:49:13.707Z,18.37
2022-09-21T13:52:05.051Z,18.35
2022-09-21T13:54:38.955Z,18.33
2022-09-21T13:57:18.080Z,18.24
2022-09-21T13:59:47.324Z,18.19
2022-09-21T14:02:36.399Z,18.17
2022-09-21T14:05:43.406Z,18.08
2022-09-21T14:08:15.895Z,18.07
2022-09-21T14:10:57.057Z,18.15
2022-09-21T14:13:26.587Z,18.22
2022-09-21T14:15:53.056Z,18.27
2022-09-21T14:18:35.351Z,18.32
2022-09-21T14:21:07.919Z,18.40
2022-09-21T14:23:35.937Z,18.44
2022-09-21T14:26:20.388Z,18.49
2022-09-21T14:28:51.602Z,18.51
2022-09-21T14:31:24.669Z,18.43
2022-09-21T14:33:54.578Z,18.34
2022-09-21T14:36:38.678Z,18.26
2022-09-21T14:39:07.950Z,18.20
2022-09-21T14:41:41.961Z,18.09
2022-09-21T14:44:19.720Z,18.04
2022-09-21T14:47:34.793Z,17.98
2022-09-21T14:50:27.558Z,17.93
2022-09-21T14:53:26.089Z,17.95
2022-09-21T14:56:19.111Z,17.90
2022-09-21T14:59:07.767Z,17.84
2022-09-21T15:01:34.243Z,17.79
2022-09-21T15:04:09.499Z,17.74
2022-09-21T15:07:00.108Z,17.75
2022-09-21T15:09:48.323Z,17.79
2022-09-21T15:12:19.469Z,17.93
2022-09-21T15:15:17.850Z,18.02
2022-09-21T15:17:59.723Z,18.07
2022-09-21T15:20:28.864Z,17.99
2022-09-21T15:22:57.209Z,17.87
2022-09-21T15:25:26.422Z,17.78
2022-09-21T15:27:53.099Z,17.61
2022-09-21T15:30:28.380Z,17.44
2022-09-21T15:32:57.653Z,17.36
2022-09-21T15:35:27.490Z,17.26
2022-09-21T15:37:55.330Z,17.14
2022-09-21T15:40:28.111Z,17.01
2022-09-21T15:43:18.885Z,16.91
2022-09-21T15:46:00.534Z,16.79
2022-09-21T15:48:29.530Z,16.74
2022-09-21T15:50:59.235Z,16.68
2022-09-21T15:53:31.708Z,16.59
2022-09-21T15:55:59.082Z,16.58
2022-09-21T15:58:32.569Z,16.61
2022-09-21T16:00:59.445Z,16.71
2022-09-21T16:03:26.174Z,16.74
2022-09-21T16:05:54.521Z,16.71
2022-09-21T16:08:26.443Z,16.62
2022-09-21T16:10:53.385Z,16.52
2022-09-21T16:13:24.389Z,16.45
2022-09-21T16:16:01.632Z,16.38
2022-09-21T16:18:45.259Z,16.26
2022-09-21T16:21:16.891Z,16.19
2022-09-21T16:23:43.525Z,16.11
2022-09-21T16:26:19.356Z,16.05
2022-09-21T16:28:46.139Z,15.98
2022-09-21T16:31:24.947Z,15.90
2022-09-21T16:33:54.193Z,15.84
2022-09-21T16:36:20.623Z,15.79
2022-09-21T16:38:47.373Z,15.74
2022-09-21T16:41:14.156Z,15.69
2022-09-21T16:43:40.844Z,15.64
2022-09-21T16:46:07.390Z,15.60
2022-09-21T16:48:34.228Z,15.55
2022-09-21T16:51:01.080Z,15.49
2022-09-21T16:53:27.605Z,15.45
2022-09-21T16:55:54.533Z,15.38
2022-09-21T16:58:21.926Z,15.31
2022-09-21T17:00:55.905Z,15.21
2022-09-21T17:03:22.948Z,15.15
2022-09-21T17:05:49.675Z,15.07
2022-09-21T17:08:16.214Z,14.98
2022-09-21T17:10:45.349Z,14.88
2022-09-21T17:13:12.378Z,14.80
2022-09-21T17:15:43.542Z,14.71
2022-09-21T17:18:12.279Z,14.62
2022-09-21T17:20:42.119Z,14.51
2022-09-21T17:23:08.751Z,14.42
2022-09-21T17:25:36.151Z,14.32
2022-09-21T17:28:10.354Z,14.21
2022-09-21T17:30:36.998Z,14.11
2022-09-21T17:33:03.511Z,14.01
2022-09-21T17:35:38.956Z,13.91
2022-09-21T17:38:07.137Z,13.81
2022-09-21T17:40:36.948Z,13.71
2022-09-21T17:43:13.345Z,13.59
2022-09-21T17:45:49.259Z,13.52
2022-09-21T17:48:23.981Z,13.41
2022-09-21T17:50:50.983Z,13.33
2022-09-21T17:53:17.902Z,13.22
2022-09-21T17:55:50.255Z,13.13
2022-09-21T17:58:30.979Z,13.05
2022-09-21T18:01:07.722Z,12.98
2022-09-21T18:03:36.548Z,12.88
2022-09-21T18:06:03.935Z,12.80
2022-09-21T18:08:32.801Z,12.72
2022-09-21T18:11:11.623Z,12.63
2022-09-21T18:13:47.239Z,12.55
2022-09-21T18:16:20.657Z,12.50
2022-09-21T18:18:59.377Z,12.44
2022-09-21T18:21:26.282Z,12.41
2022-09-21T18:24:02.817Z,12.33
2022-09-21T18:26:29.837Z,12.29
2022-09-21T18:28:56.596Z,12.22
2022-09-21T18:31:31.819Z,12.17
2022-09-21T18:34:23.132Z,12.09
2022-09-21T18:37:01.107Z,12.03
2022-09-21T18:39:39.377Z,11.97
2022-09-21T18:42:31.336Z,11.88
2022-09-21T18:45:09.305Z,11.82
2022-09-21T18:47:41.337Z,11.69
2022-09-21T18:50:26.259Z,11.68
2022-09-21T18:53:15.520Z,11.63
2022-09-21T18:55:42.264Z,11.57
2022-09-21T18:58:09.285Z,11.50
2022-09-21T19:00:36.194Z,11.44
2022-09-21T19:03:16.946Z,11.37
2022-09-21T19:05:56.958Z,11.30
2022-09-21T19:08:37.970Z,11.24
2022-09-21T19:11:24.600Z,11.18
2022-09-21T19:14:08.913Z,11.12
2022-09-21T19:16:41.768Z,11.07
2022-09-21T19:19:22.993Z,11.01
2022-09-21T19:21:55.728Z,10.99
2022-09-21T19:24:43.375Z,10.92
2022-09-21T19:27:15.746Z,10.88
2022-09-21T19:30:09.896Z,10.80
2022-09-21T19:32:46.147Z,10.78
2022-09-21T19:35:19.147Z,10.74
2022-09-21T19:37:47.035Z,10.70
2022-09-21T19:40:15.932Z,10.66
2022-09-21T19:43:10.152Z,10.59
2022-09-21T19:46:10.634Z,10.54
2022-09-21T19:48:46.080Z,10.50
2022-09-21T19:51:35.578Z,10.46
2022-09-21T19:54:03.315Z,10.43
2022-09-21T19:56:31.282Z,10.40
2022-09-21T19:58:58.268Z,10.37
2022-09-21T20:01:24.778Z,10.35
2022-09-21T20:03:51.396Z,10.31
2022-09-21T20:06:26.902Z,10.25
2022-09-21T20:09:26.840Z,10.20
2022-09-21T20:11:53.304Z,10.16
2022-09-21T20:14:26.907Z,10.12
2022-09-21T20:16:56.582Z,10.07
2022-09-21T20:19:38.016Z,10.02
2022-09-21T20:22:09.648Z,9.98
2022-09-21T20:25:03.411Z,9.93
2022-09-21T20:27:32.803Z,9.91
2022-09-21T20:29:59.246Z,9.88
2022-09-21T20:32:25.816Z,9.86
2022-09-21T20:34:52.444Z,9.81
2022-09-21T20:37:18.914Z,9.78
2022-09-21T20:39:45.532Z,9.75
2022-09-21T20:42:24.334Z,9.70
2022-09-21T20:44:51.286Z,9.67
2022-09-21T20:47:18.405Z,9.63
2022-09-21T20:49:48.690Z,9.59
2022-09-21T20:52:16.333Z,9.56
2022-09-21T20:54:49.024Z,9.52
2022-09-21T20:57:19.039Z,9.49
2022-09-21T20:59:45.857Z,9.47
2022-09-21T21:02:14.265Z,9.43
2022-09-21T21:04:41.006Z,9.40
2022-09-21T21:07:07.820Z,9.37
2022-09-21T21:09:34.409Z,9.33
2022-09-21T21:12:01.225Z,9.32
2022-09-21T21:14:27.943Z,9.28
2022-09-21T21:16:54.645Z,9.25
2022-09-21T21:19:21.258Z,9.22
2022-09-21T21:21:47.760Z,9.20
2022-09-21T21:24:14.385Z,9.18
2022-09-21T21:29:27.480Z,9.12
2022-09-21T21:31:54.108Z,9.11
2022-09-21T21:34:20.702Z,9.07
2022-09-21T21:36:47.210Z,9.05
2022-09-21T21:39:13.684Z,9.02
2022-09-21T21:41:40.912Z,8.98
2022-09-21T21:44:09.547Z,8.97
2022-09-21T21:46:36.087Z,8.93
2022-09-21T21:49:02.724Z,8.92
2022-09-21T21:51:29.475Z,8.88
2022-09-21T21:53:56.275Z,8.84
2022-09-21T21:56:22.957Z,8.82
2022-09-21T21:58:54.212Z,8.79
2022-09-21T22:01:23.977Z,8.76
2022-09-21T22:03:56.032Z,8.74
2022-09-21T22:06:23.355Z,8.71
2022-09-21T22:08:50.511Z,8.68
2022-09-21T22:11:17.862Z,8.66
2022-09-21T22:13:45.446Z,8.62
2022-09-21T22:16:15.182Z,8.59
2022-09-21T22:18:42.824Z,8.57
2022-09-21T22:21:28.469Z,8.53
2022-09-21T22:23:57.580Z,8.50
2022-09-21T22:26:26.152Z,8.48
2022-09-21T22:28:55.245Z,8.45
2022-09-21T22:31:24.824Z,8.42
2022-09-21T22:33:51.412Z,8.40
2022-09-21T22:36:19.978Z,8.36
2022-09-21T22:38:47.423Z,8.32
2022-09-21T22:41:17.144Z,8.28
2022-09-21T22:43:44.647Z,8.25
2022-09-21T22:46:11.745Z,8.22
2022-09-21T22:48:38.842Z,8.19
2022-09-21T22:51:05.947Z,8.17
2022-09-21T22:53:32.459Z,8.13
2022-09-21T22:56:09.440Z,8.10
2022-09-21T22:58:38.569Z,8.09
2022-09-21T23:01:08.121Z,8.06
2022-09-21T23:03:35.047Z,8.03
2022-09-21T23:06:01.680Z,8.01
2022-09-21T23:08:28.653Z,7.98
2022-09-21T23:10:55.905Z,7.95
2022-09-21T23:13:22.654Z,7.92
2022-09-21T23:15:49.174Z,7.90
2022-09-21T23:18:15.629Z,7.89
2022-09-21T23:20:42.167Z,7.87
2022-09-21T23:23:08.647Z,7.85
2022-09-21T23:25:35.318Z,7.83
2022-09-21T23:28:01.806Z,7.81
2022-09-21T23:30:28.547Z,7.78
2022-09-21T23:32:55.043Z,7.77
2022-09-21T23:35:21.520Z,7.74
2022-09-21T23:37:48.118Z,7.72
2022-09-21T23:40:14.822Z,7.69
2022-09-21T23:42:41.347Z,7.68
2022-09-21T23:45:08.357Z,7.65
2022-09-21T23:47:34.856Z,7.61
2022-09-21T23:50:01.403Z,7.60
2022-09-21T23:52:27.880Z,7.57
2022-09-21T23:54:54.446Z,7.56
2022-09-21T23:57:20.959Z,7.55
2022-09-21T23:59:47.437Z,7.53
